Current | Forecast
Updated: 6:56 PM JST on April 20, 2018
Observed at Futenma MCAF, Japan
Temperature 71°F
Humidity 73%
Dew Point 62°F
Wind East at 13 mph
Wind Gust 20 mph
Pressure 30.02 in (Steady)
Conditions Mostly Cloudy
Visibility 6.2 miles
UV 0 out of 16
Clouds Mostly Cloudy (BKN) : 3000 ft
Mostly Cloudy (BKN) : 20000 ft
Yesterday's Maximum 76°F
Yesterday's Minimum 62°F approx.
Yesterday's Cooling Degree Days 4 approx.
Sunrise6:01 AM JST
Sunset6:54 PM JST
Moon Rise9:22 AM JST
Moon Set11:14 PM JST
Moon PhaseMoon Phase
Waxing Crescent
Raw METARMETAR ROTM 200956Z 10011G17KT 9999 BKN030 BKN200 22/17 A3006 RMK SLP166 STNPR29760 T02170167


Monday
. High: 77° F.
Tuesday
. High: 75° F.
Wednesday
. High: 73° F.
Thursday
. High: 75° F.
Friday
. High: 77° F.
Saturday
. High: 77° F.
Sunday
. High: 77° F.
Monday
. High: 79° F.

Units: English | Metric

Find the Weather for any City, State or Zipcode, or Country:

U.S. State List | Severe Weather | Tropical Storms | Ski Conditions
United States | Canada | Central America | South America | Asia | Europe | Australia | Africa | Islands

Weather Underground

© Copyright 2018
The Weather Company, LLC